sensor_id;sensor_type;location;lat;lon;timestamp;temperature;humidity
4820;DHT22;2424;49.696;6.630;2022-10-16T00:04:42;14.50;99.90
4820;DHT22;2424;49.696;6.630;2022-10-16T00:10:07;14.50;99.90
4820;DHT22;2424;49.696;6.630;2022-10-16T00:15:29;14.50;99.90
4820;DHT22;2424;49.696;6.630;2022-10-16T00:20:53;14.60;99.90
4820;DHT22;2424;49.696;6.630;2022-10-16T00:26:17;14.60;99.90
4820;DHT22;2424;49.696;6.630;2022-10-16T00:31:40;14.50;99.90
4820;DHT22;2424;49.696;6.630;2022-10-16T00:37:04;14.50;99.90
4820;DHT22;2424;49.696;6.630;2022-10-16T00:42:27;14.50;99.90
4820;DHT22;2424;49.696;6.630;2022-10-16T00:47:51;14.50;99.90
4820;DHT22;2424;49.696;6.630;2022-10-16T00:53:16;14.50;99.90
4820;DHT22;2424;49.696;6.630;2022-10-16T00:58:39;14.40;99.90
4820;DHT22;2424;49.696;6.630;2022-10-16T01:04:01;14.40;99.90
4820;DHT22;2424;49.696;6.630;2022-10-16T01:09:27;14.40;99.90
4820;DHT22;2424;49.696;6.630;2022-10-16T01:14:55;14.20;99.90
4820;DHT22;2424;49.696;6.630;2022-10-16T01:20:27;14.10;99.90
4820;DHT22;2424;49.696;6.630;2022-10-16T01:26:13;14.10;99.90
4820;DHT22;2424;49.696;6.630;2022-10-16T01:31:41;14.10;99.90
4820;DHT22;2424;49.696;6.630;2022-10-16T01:37:09;14.10;99.90
4820;DHT22;2424;49.696;6.630;2022-10-16T01:42:36;14.10;99.90
4820;DHT22;2424;49.696;6.630;2022-10-16T01:48:02;14.20;99.90
4820;DHT22;2424;49.696;6.630;2022-10-16T01:53:28;14.20;99.90
4820;DHT22;2424;49.696;6.630;2022-10-16T01:58:55;14.20;99.90
4820;DHT22;2424;49.696;6.630;2022-10-16T02:04:22;14.10;99.90
4820;DHT22;2424;49.696;6.630;2022-10-16T02:09:46;14.10;99.90
4820;DHT22;2424;49.696;6.630;2022-10-16T02:15:08;14.10;99.90
4820;DHT22;2424;49.696;6.630;2022-10-16T02:20:36;14.10;99.90
4820;DHT22;2424;49.696;6.630;2022-10-16T02:25:58;14.10;99.90
4820;DHT22;2424;49.696;6.630;2022-10-16T02:31:26;14.10;99.90
4820;DHT22;2424;49.696;6.630;2022-10-16T02:36:51;14.10;99.90
4820;DHT22;2424;49.696;6.630;2022-10-16T02:42:14;14.10;99.90
4820;DHT22;2424;49.696;6.630;2022-10-16T02:47:37;14.10;99.90
4820;DHT22;2424;49.696;6.630;2022-10-16T02:53:00;14.10;99.90
4820;DHT22;2424;49.696;6.630;2022-10-16T02:58:22;14.10;99.90
4820;DHT22;2424;49.696;6.630;2022-10-16T03:03:46;14.00;99.90
4820;DHT22;2424;49.696;6.630;2022-10-16T03:09:09;14.10;99.90
4820;DHT22;2424;49.696;6.630;2022-10-16T03:14:31;14.10;99.90
4820;DHT22;2424;49.696;6.630;2022-10-16T03:19:53;14.00;99.90
4820;DHT22;2424;49.696;6.630;2022-10-16T03:25:17;14.10;99.90
4820;DHT22;2424;49.696;6.630;2022-10-16T03:30:39;14.00;99.90
4820;DHT22;2424;49.696;6.630;2022-10-16T03:36:01;14.00;99.90
4820;DHT22;2424;49.696;6.630;2022-10-16T03:41:24;14.00;99.90
4820;DHT22;2424;49.696;6.630;2022-10-16T03:46:46;14.10;99.90
4820;DHT22;2424;49.696;6.630;2022-10-16T03:52:08;14.10;99.90
4820;DHT22;2424;49.696;6.630;2022-10-16T03:57:31;14.00;99.90
4820;DHT22;2424;49.696;6.630;2022-10-16T04:02:53;14.00;99.90
4820;DHT22;2424;49.696;6.630;2022-10-16T04:08:16;14.00;99.90
4820;DHT22;2424;49.696;6.630;2022-10-16T04:13:40;14.00;99.90
4820;DHT22;2424;49.696;6.630;2022-10-16T04:19:02;14.10;99.90
4820;DHT22;2424;49.696;6.630;2022-10-16T04:24:24;14.00;99.90
4820;DHT22;2424;49.696;6.630;2022-10-16T04:29:47;14.00;99.90
4820;DHT22;2424;49.696;6.630;2022-10-16T04:35:11;14.00;99.90
4820;DHT22;2424;49.696;6.630;2022-10-16T04:40:33;14.00;99.90
4820;DHT22;2424;49.696;6.630;2022-10-16T04:45:58;14.00;99.90
4820;DHT22;2424;49.696;6.630;2022-10-16T04:51:20;14.00;99.90
4820;DHT22;2424;49.696;6.630;2022-10-16T04:56:42;14.00;99.90
4820;DHT22;2424;49.696;6.630;2022-10-16T05:02:09;14.00;99.90
4820;DHT22;2424;49.696;6.630;2022-10-16T05:07:31;14.00;99.90
4820;DHT22;2424;49.696;6.630;2022-10-16T05:12:53;14.00;99.90
4820;DHT22;2424;49.696;6.630;2022-10-16T05:18:16;14.00;99.90
4820;DHT22;2424;49.696;6.630;2022-10-16T05:23:38;14.00;99.90
4820;DHT22;2424;49.696;6.630;2022-10-16T05:29:00;14.00;99.90
4820;DHT22;2424;49.696;6.630;2022-10-16T05:34:24;14.00;99.90
4820;DHT22;2424;49.696;6.630;2022-10-16T05:39:46;13.90;99.90
4820;DHT22;2424;49.696;6.630;2022-10-16T05:45:10;14.00;99.90
4820;DHT22;2424;49.696;6.630;2022-10-16T05:50:36;13.90;99.90
4820;DHT22;2424;49.696;6.630;2022-10-16T05:56:01;13.90;99.90
4820;DHT22;2424;49.696;6.630;2022-10-16T06:01:23;13.90;99.90
4820;DHT22;2424;49.696;6.630;2022-10-16T06:06:46;13.90;99.90
4820;DHT22;2424;49.696;6.630;2022-10-16T06:12:08;13.90;99.90
4820;DHT22;2424;49.696;6.630;2022-10-16T06:17:30;13.90;99.90
4820;DHT22;2424;49.696;6.630;2022-10-16T06:22:54;13.90;99.90
4820;DHT22;2424;49.696;6.630;2022-10-16T06:28:16;13.90;99.90
4820;DHT22;2424;49.696;6.630;2022-10-16T06:33:39;13.90;99.90
4820;DHT22;2424;49.696;6.630;2022-10-16T06:39:02;13.90;99.90
4820;DHT22;2424;49.696;6.630;2022-10-16T06:44:25;13.90;99.90
4820;DHT22;2424;49.696;6.630;2022-10-16T06:49:49;13.90;99.90
4820;DHT22;2424;49.696;6.630;2022-10-16T06:55:12;14.00;99.90
4820;DHT22;2424;49.696;6.630;2022-10-16T07:00:35;14.00;99.90
4820;DHT22;2424;49.696;6.630;2022-10-16T07:06:00;14.00;99.90
4820;DHT22;2424;49.696;6.630;2022-10-16T07:11:25;14.00;99.90
4820;DHT22;2424;49.696;6.630;2022-10-16T07:16:48;14.00;99.90
4820;DHT22;2424;49.696;6.630;2022-10-16T07:22:10;14.00;99.90
4820;DHT22;2424;49.696;6.630;2022-10-16T07:27:33;14.00;99.90
4820;DHT22;2424;49.696;6.630;2022-10-16T07:32:55;14.10;99.90
4820;DHT22;2424;49.696;6.630;2022-10-16T07:38:18;14.10;99.90
4820;DHT22;2424;49.696;6.630;2022-10-16T07:43:45;14.10;99.90
4820;DHT22;2424;49.696;6.630;2022-10-16T07:49:09;14.20;99.90
4820;DHT22;2424;49.696;6.630;2022-10-16T07:54:31;14.20;99.90
4820;DHT22;2424;49.696;6.630;2022-10-16T07:59:54;14.20;99.90
4820;DHT22;2424;49.696;6.630;2022-10-16T08:05:17;14.30;99.90
4820;DHT22;2424;49.696;6.630;2022-10-16T08:10:38;14.30;99.90
4820;DHT22;2424;49.696;6.630;2022-10-16T08:16:02;14.30;99.90
4820;DHT22;2424;49.696;6.630;2022-10-16T08:21:28;14.30;99.90
4820;DHT22;2424;49.696;6.630;2022-10-16T08:26:50;14.40;99.90
4820;DHT22;2424;49.696;6.630;2022-10-16T08:32:13;14.40;99.90
4820;DHT22;2424;49.696;6.630;2022-10-16T08:37:35;14.40;99.90
4820;DHT22;2424;49.696;6.630;2022-10-16T08:43:12;14.40;99.90
4820;DHT22;2424;49.696;6.630;2022-10-16T08:48:45;14.40;99.90
4820;DHT22;2424;49.696;6.630;2022-10-16T08:54:22;14.50;99.90
4820;DHT22;2424;49.696;6.630;2022-10-16T08:59:47;14.50;99.90
4820;DHT22;2424;49.696;6.630;2022-10-16T09:05:33;14.50;99.90
4820;DHT22;2424;49.696;6.630;2022-10-16T09:11:03;14.50;99.90
4820;DHT22;2424;49.696;6.630;2022-10-16T09:16:32;14.50;99.90
4820;DHT22;2424;49.696;6.630;2022-10-16T09:21:59;14.60;99.90
4820;DHT22;2424;49.696;6.630;2022-10-16T09:27:24;14.70;99.90
4820;DHT22;2424;49.696;6.630;2022-10-16T09:32:48;14.80;99.90
4820;DHT22;2424;49.696;6.630;2022-10-16T09:38:25;14.80;99.90
4820;DHT22;2424;49.696;6.630;2022-10-16T09:43:51;14.90;99.90
4820;DHT22;2424;49.696;6.630;2022-10-16T09:49:22;14.90;99.90
4820;DHT22;2424;49.696;6.630;2022-10-16T09:54:51;14.90;99.90
4820;DHT22;2424;49.696;6.630;2022-10-16T10:00:16;15.00;99.90
4820;DHT22;2424;49.696;6.630;2022-10-16T10:05:39;15.10;99.90
4820;DHT22;2424;49.696;6.630;2022-10-16T10:11:03;15.30;99.90
4820;DHT22;2424;49.696;6.630;2022-10-16T10:16:25;15.30;99.90
4820;DHT22;2424;49.696;6.630;2022-10-16T10:21:47;15.40;99.90
4820;DHT22;2424;49.696;6.630;2022-10-16T10:27:13;15.40;99.90
4820;DHT22;2424;49.696;6.630;2022-10-16T10:32:45;15.50;99.90
4820;DHT22;2424;49.696;6.630;2022-10-16T10:38:20;15.50;99.90
4820;DHT22;2424;49.696;6.630;2022-10-16T10:43:54;15.60;99.90
4820;DHT22;2424;49.696;6.630;2022-10-16T10:49:32;15.70;99.90
4820;DHT22;2424;49.696;6.630;2022-10-16T10:55:05;15.80;99.90
4820;DHT22;2424;49.696;6.630;2022-10-16T11:00:43;15.80;99.90
4820;DHT22;2424;49.696;6.630;2022-10-16T11:06:10;15.80;99.90
4820;DHT22;2424;49.696;6.630;2022-10-16T11:11:37;15.80;99.90
4820;DHT22;2424;49.696;6.630;2022-10-16T11:17:12;15.80;99.90
4820;DHT22;2424;49.696;6.630;2022-10-16T11:22:39;15.90;99.90
4820;DHT22;2424;49.696;6.630;2022-10-16T11:28:09;16.00;99.90
4820;DHT22;2424;49.696;6.630;2022-10-16T11:33:39;16.00;99.90
4820;DHT22;2424;49.696;6.630;2022-10-16T11:39:10;16.00;99.90
4820;DHT22;2424;49.696;6.630;2022-10-16T11:44:48;16.10;99.90
4820;DHT22;2424;49.696;6.630;2022-10-16T11:50:21;16.10;99.90
4820;DHT22;2424;49.696;6.630;2022-10-16T11:55:45;16.10;99.90
4820;DHT22;2424;49.696;6.630;2022-10-16T12:01:17;16.20;99.90
4820;DHT22;2424;49.696;6.630;2022-10-16T12:06:44;16.20;99.90
4820;DHT22;2424;49.696;6.630;2022-10-16T12:12:27;16.20;99.90
4820;DHT22;2424;49.696;6.630;2022-10-16T12:17:49;16.20;99.90
4820;DHT22;2424;49.696;6.630;2022-10-16T12:23:20;16.30;99.90
4820;DHT22;2424;49.696;6.630;2022-10-16T12:28:43;16.30;99.90
4820;DHT22;2424;49.696;6.630;2022-10-16T12:34:21;16.30;99.90
4820;DHT22;2424;49.696;6.630;2022-10-16T12:39:47;16.30;99.90
4820;DHT22;2424;49.696;6.630;2022-10-16T12:45:24;16.30;99.90
4820;DHT22;2424;49.696;6.630;2022-10-16T12:50:46;16.40;99.90
4820;DHT22;2424;49.696;6.630;2022-10-16T12:56:16;16.60;99.90
4820;DHT22;2424;49.696;6.630;2022-10-16T13:02:01;16.60;99.90
4820;DHT22;2424;49.696;6.630;2022-10-16T13:07:44;16.60;99.90
4820;DHT22;2424;49.696;6.630;2022-10-16T13:13:34;16.60;99.90
4820;DHT22;2424;49.696;6.630;2022-10-16T13:19:06;16.70;99.90
4820;DHT22;2424;49.696;6.630;2022-10-16T13:24:46;16.70;99.90
4820;DHT22;2424;49.696;6.630;2022-10-16T13:30:16;16.80;99.90
4820;DHT22;2424;49.696;6.630;2022-10-16T13:35:47;16.80;99.90
4820;DHT22;2424;49.696;6.630;2022-10-16T13:41:14;16.90;99.90
4820;DHT22;2424;49.696;6.630;2022-10-16T13:46:38;17.00;99.90
4820;DHT22;2424;49.696;6.630;2022-10-16T13:52:00;16.90;99.90
4820;DHT22;2424;49.696;6.630;2022-10-16T13:57:23;16.90;99.90
4820;DHT22;2424;49.696;6.630;2022-10-16T14:02:51;16.90;99.90
4820;DHT22;2424;49.696;6.630;2022-10-16T14:08:14;16.90;99.90
4820;DHT22;2424;49.696;6.630;2022-10-16T14:13:38;16.80;99.90
4820;DHT22;2424;49.696;6.630;2022-10-16T14:19:04;16.90;99.90
4820;DHT22;2424;49.696;6.630;2022-10-16T14:24:31;16.90;99.90
4820;DHT22;2424;49.696;6.630;2022-10-16T14:30:20;16.90;99.90
4820;DHT22;2424;49.696;6.630;2022-10-16T14:35:44;16.90;99.90
4820;DHT22;2424;49.696;6.630;2022-10-16T14:41:06;17.00;99.90
4820;DHT22;2424;49.696;6.630;2022-10-16T14:46:31;17.00;99.90
4820;DHT22;2424;49.696;6.630;2022-10-16T14:51:50;17.00;99.90
4820;DHT22;2424;49.696;6.630;2022-10-16T14:57:17;17.00;99.90
4820;DHT22;2424;49.696;6.630;2022-10-16T15:02:39;17.10;99.90
4820;DHT22;2424;49.696;6.630;2022-10-16T15:08:03;17.20;99.90
4820;DHT22;2424;49.696;6.630;2022-10-16T15:13:25;17.20;99.90
4820;DHT22;2424;49.696;6.630;2022-10-16T15:18:47;17.30;99.90
4820;DHT22;2424;49.696;6.630;2022-10-16T15:24:13;17.30;99.90
4820;DHT22;2424;49.696;6.630;2022-10-16T15:29:35;17.20;99.90
4820;DHT22;2424;49.696;6.630;2022-10-16T15:34:57;17.20;99.90
4820;DHT22;2424;49.696;6.630;2022-10-16T15:40:21;17.20;99.90
4820;DHT22;2424;49.696;6.630;2022-10-16T15:45:43;17.20;99.90
4820;DHT22;2424;49.696;6.630;2022-10-16T15:51:06;17.30;99.90
4820;DHT22;2424;49.696;6.630;2022-10-16T15:56:29;17.30;99.90
4820;DHT22;2424;49.696;6.630;2022-10-16T16:01:53;17.30;99.90
4820;DHT22;2424;49.696;6.630;2022-10-16T16:07:15;18.20;99.90
4820;DHT22;2424;49.696;6.630;2022-10-16T16:12:39;18.40;99.90
4820;DHT22;2424;49.696;6.630;2022-10-16T16:18:01;17.80;99.90
4820;DHT22;2424;49.696;6.630;2022-10-16T16:23:26;17.60;99.90
4820;DHT22;2424;49.696;6.630;2022-10-16T16:28:51;17.40;99.90
4820;DHT22;2424;49.696;6.630;2022-10-16T16:34:13;17.20;99.90
4820;DHT22;2424;49.696;6.630;2022-10-16T16:39:35;17.00;99.90
4820;DHT22;2424;49.696;6.630;2022-10-16T16:44:59;16.70;99.90
4820;DHT22;2424;49.696;6.630;2022-10-16T16:50:20;16.60;99.90
4820;DHT22;2424;49.696;6.630;2022-10-16T16:55:42;16.50;99.90
4820;DHT22;2424;49.696;6.630;2022-10-16T17:01:06;16.40;99.90
4820;DHT22;2424;49.696;6.630;2022-10-16T17:06:30;16.10;99.90
4820;DHT22;2424;49.696;6.630;2022-10-16T17:11:52;16.10;99.90
4820;DHT22;2424;49.696;6.630;2022-10-16T17:17:16;16.00;99.90
4820;DHT22;2424;49.696;6.630;2022-10-16T17:22:38;15.90;99.90
4820;DHT22;2424;49.696;6.630;2022-10-16T17:28:01;15.80;99.90
4820;DHT22;2424;49.696;6.630;2022-10-16T17:33:26;15.70;99.90
4820;DHT22;2424;49.696;6.630;2022-10-16T17:38:48;15.70;99.90
4820;DHT22;2424;49.696;6.630;2022-10-16T17:44:10;15.50;99.90
4820;DHT22;2424;49.696;6.630;2022-10-16T17:49:40;15.40;99.90
4820;DHT22;2424;49.696;6.630;2022-10-16T17:55:02;15.30;99.90
4820;DHT22;2424;49.696;6.630;2022-10-16T18:00:24;15.30;99.90
4820;DHT22;2424;49.696;6.630;2022-10-16T18:05:47;15.20;99.90
4820;DHT22;2424;49.696;6.630;2022-10-16T18:11:09;15.20;99.90
4820;DHT22;2424;49.696;6.630;2022-10-16T18:16:32;15.10;99.90
4820;DHT22;2424;49.696;6.630;2022-10-16T18:21:57;15.00;99.90
4820;DHT22;2424;49.696;6.630;2022-10-16T18:27:22;15.00;99.90
4820;DHT22;2424;49.696;6.630;2022-10-16T18:32:43;14.90;99.90
4820;DHT22;2424;49.696;6.630;2022-10-16T18:38:07;14.90;99.90
4820;DHT22;2424;49.696;6.630;2022-10-16T18:43:29;14.90;99.90
4820;DHT22;2424;49.696;6.630;2022-10-16T18:48:51;14.80;99.90
4820;DHT22;2424;49.696;6.630;2022-10-16T18:54:15;14.80;99.90
4820;DHT22;2424;49.696;6.630;2022-10-16T18:59:37;14.70;99.90
4820;DHT22;2424;49.696;6.630;2022-10-16T19:04:59;14.60;99.90
4820;DHT22;2424;49.696;6.630;2022-10-16T19:10:24;14.70;99.90
4820;DHT22;2424;49.696;6.630;2022-10-16T19:15:46;14.70;99.90
4820;DHT22;2424;49.696;6.630;2022-10-16T19:21:09;14.60;99.90
4820;DHT22;2424;49.696;6.630;2022-10-16T19:26:33;14.60;99.90
4820;DHT22;2424;49.696;6.630;2022-10-16T19:31:55;14.50;99.90
4820;DHT22;2424;49.696;6.630;2022-10-16T19:37:17;14.50;99.90
4820;DHT22;2424;49.696;6.630;2022-10-16T19:42:47;14.50;99.90
4820;DHT22;2424;49.696;6.630;2022-10-16T19:48:11;14.50;99.90
4820;DHT22;2424;49.696;6.630;2022-10-16T19:53:33;14.40;99.90
4820;DHT22;2424;49.696;6.630;2022-10-16T19:58:57;14.40;99.90
4820;DHT22;2424;49.696;6.630;2022-10-16T20:04:19;14.40;99.90
4820;DHT22;2424;49.696;6.630;2022-10-16T20:09:41;14.30;99.90
4820;DHT22;2424;49.696;6.630;2022-10-16T20:15:06;14.30;99.90
4820;DHT22;2424;49.696;6.630;2022-10-16T20:20:28;14.30;99.90
4820;DHT22;2424;49.696;6.630;2022-10-16T20:25:50;14.20;99.90
4820;DHT22;2424;49.696;6.630;2022-10-16T20:31:16;14.30;99.90
4820;DHT22;2424;49.696;6.630;2022-10-16T20:36:42;14.20;99.90
4820;DHT22;2424;49.696;6.630;2022-10-16T20:42:04;14.10;99.90
4820;DHT22;2424;49.696;6.630;2022-10-16T20:47:28;14.00;99.90
4820;DHT22;2424;49.696;6.630;2022-10-16T20:52:50;14.00;99.90
4820;DHT22;2424;49.696;6.630;2022-10-16T20:58:12;14.00;99.90
4820;DHT22;2424;49.696;6.630;2022-10-16T21:03:36;14.00;99.90
4820;DHT22;2424;49.696;6.630;2022-10-16T21:08:58;14.00;99.90
4820;DHT22;2424;49.696;6.630;2022-10-16T21:14:22;14.00;99.90
4820;DHT22;2424;49.696;6.630;2022-10-16T21:19:47;13.80;99.90
4820;DHT22;2424;49.696;6.630;2022-10-16T21:25:09;13.80;99.90
4820;DHT22;2424;49.696;6.630;2022-10-16T21:30:31;13.90;99.90
4820;DHT22;2424;49.696;6.630;2022-10-16T21:35:55;13.80;99.90
4820;DHT22;2424;49.696;6.630;2022-10-16T21:41:23;13.80;99.90
4820;DHT22;2424;49.696;6.630;2022-10-16T21:46:51;13.80;99.90
4820;DHT22;2424;49.696;6.630;2022-10-16T21:52:14;13.70;99.90
4820;DHT22;2424;49.696;6.630;2022-10-16T21:57:36;13.80;99.90
4820;DHT22;2424;49.696;6.630;2022-10-16T22:03:01;13.80;99.90
4820;DHT22;2424;49.696;6.630;2022-10-16T22:08:24;13.60;99.90
4820;DHT22;2424;49.696;6.630;2022-10-16T22:13:46;13.80;99.90
4820;DHT22;2424;49.696;6.630;2022-10-16T22:19:11;13.80;99.90
4820;DHT22;2424;49.696;6.630;2022-10-16T22:24:35;13.80;99.90
4820;DHT22;2424;49.696;6.630;2022-10-16T22:29:57;13.70;99.90
4820;DHT22;2424;49.696;6.630;2022-10-16T22:35:19;13.70;99.90
4820;DHT22;2424;49.696;6.630;2022-10-16T22:40:42;13.60;99.90
4820;DHT22;2424;49.696;6.630;2022-10-16T22:46:05;13.60;99.90
4820;DHT22;2424;49.696;6.630;2022-10-16T22:51:28;13.50;99.90
4820;DHT22;2424;49.696;6.630;2022-10-16T22:56:51;13.50;99.90
4820;DHT22;2424;49.696;6.630;2022-10-16T23:02:13;13.60;99.90
4820;DHT22;2424;49.696;6.630;2022-10-16T23:07:36;13.50;99.90
4820;DHT22;2424;49.696;6.630;2022-10-16T23:12:59;13.50;99.90
4820;DHT22;2424;49.696;6.630;2022-10-16T23:18:21;13.40;99.90
4820;DHT22;2424;49.696;6.630;2022-10-16T23:23:43;13.30;99.90
4820;DHT22;2424;49.696;6.630;2022-10-16T23:29:08;13.30;99.90
4820;DHT22;2424;49.696;6.630;2022-10-16T23:34:30;13.30;99.90
4820;DHT22;2424;49.696;6.630;2022-10-16T23:39:52;13.30;99.90
4820;DHT22;2424;49.696;6.630;2022-10-16T23:45:16;13.40;99.90
4820;DHT22;2424;49.696;6.630;2022-10-16T23:50:39;13.40;99.90
4820;DHT22;2424;49.696;6.630;2022-10-16T23:56:01;13.60;99.90
